Buoy 44845

sailwx.info

Track history (hours):
 
Tides and Currents Weather Stations Pressure Air Temp Water Temp Dewpoint Dewpoint Depression Visibility Wind Speed Wind Dir Waves Ship Positions

Drifting buoy 44845

Last reported at 2014-Oct-30 15:01 UTC. Time now 2014-Oct-30 16:07 UTC.
Position N 68°50' W 000°33'.

Water temperature 6.0 ° C

Date/timePositionNaut miles runAvg speedWind from/ knotsBaromVisibWave heightAir tempDewpointWater temp
2014-Oct-30 15:01N 68°50' W 000°33'0 0.3 6.0
2014-Oct-30 14:01N 68°50' W 000°33'0 0.3 6.1
2014-Oct-30 13:01N 68°50' W 000°33'1 0.6 6.0
2014-Oct-30 12:01N 68°49' W 000°33'1 0.7 6.1
2014-Oct-30 11:01N 68°48' W 000°33'1 0.7 6.1
2014-Oct-30 10:01N 68°48' W 000°32'1 0.7 6.1
2014-Oct-30 09:01N 68°47' W 000°31'1 0.7 6.1
2014-Oct-30 08:01N 68°46' W 000°30'1 0.7 6.2
2014-Oct-30 07:01N 68°46' W 000°28'1 0.6 6.2
2014-Oct-30 06:01N 68°46' W 000°27'0 0.5 6.2
2014-Oct-30 05:01N 68°46' W 000°26'0 0.3 6.2
2014-Oct-30 04:01N 68°46' W 000°25'0 0.2 6.2
2014-Oct-30 03:01N 68°45' W 000°24'0 0.1 6.1
2014-Oct-30 02:01N 68°45' W 000°24'0 0.1 6.1
2014-Oct-30 01:01N 68°45' W 000°24'0 0.2 6.1
2014-Oct-30 00:01N 68°45' W 000°24'0 0.2 6.0
2014-Oct-29 23:01N 68°45' W 000°24'0 0.2 6.1
2014-Oct-29 22:01N 68°45' W 000°24'0 0.3 6.1
2014-Oct-29 21:01N 68°44' W 000°24'0 0.3 6.0
2014-Oct-29 20:01N 68°44' W 000°23'0 0.4 6.1
2014-Oct-29 19:01N 68°44' W 000°22'0 0.4 6.0
2014-Oct-29 18:01N 68°44' W 000°21'0 0.4 6.0
2014-Oct-29 17:01N 68°44' W 000°20'0 0.3 6.1
2014-Oct-29 16:01N 68°44' W 000°19'0 0.3 5.9
2014-Oct-29 15:01N 68°44' W 000°19'0 0.3 6.1
2014-Oct-29 14:01N 68°44' W 000°18'0 0.2 6.0
2014-Oct-29 13:01N 68°44' W 000°17'0 0.2 5.9
2014-Oct-29 12:01N 68°44' W 000°17'0 0.1 6.0
2014-Oct-29 11:01N 68°44' W 000°17'0 0.2 5.9
2014-Oct-29 10:01N 68°44' W 000°18'0 0.2 5.9
2014-Oct-29 09:01N 68°44' W 000°18'0 0.2 5.9
2014-Oct-29 08:01N 68°44' W 000°19'0 0.2 5.8
2014-Oct-29 07:01N 68°44' W 000°19'0 0.1 5.8
2014-Oct-29 06:01N 68°44' W 000°19'0 0.1 5.7
2014-Oct-29 05:01N 68°44' W 000°19'0 0.2 5.8
2014-Oct-29 04:01N 68°44' W 000°18'0 0.2 5.8
2014-Oct-29 03:01N 68°44' W 000°18'0 0.2 5.9
2014-Oct-29 02:01N 68°44' W 000°17'0 0.2 5.8
2014-Oct-29 01:01N 68°44' W 000°16'0 0.4 5.8
2014-Oct-29 00:01N 68°44' W 000°16'0 0.3 5.7
2014-Oct-28 23:01N 68°44' W 000°15'0 0.2 5.6
2014-Oct-28 22:01N 68°44' W 000°15'0 0.2 5.6
2014-Oct-28 21:01N 68°44' W 000°16'0 0.2 5.7
2014-Oct-28 20:01N 68°44' W 000°16'0 0.2 5.6
2014-Oct-28 19:01N 68°44' W 000°17'0 0.2 5.7
2014-Oct-28 18:01N 68°44' W 000°17'0 0.2 5.7
2014-Oct-28 17:01N 68°44' W 000°17'0 0.5 5.8
2014-Oct-28 16:01N 68°44' W 000°16'0 0.5 6.0
2014-Oct-28 15:01N 68°43' W 000°14'0 0.5 6.1
2014-Oct-28 14:01N 68°43' W 000°13'0 0.4 6.0
2014-Oct-28 13:01N 68°43' W 000°12'0 0.4 6.0
2014-Oct-28 12:01N 68°43' W 000°11'0 0.4 5.9
2014-Oct-28 11:01N 68°44' W 000°10'0 0.4 5.8
2014-Oct-28 10:01N 68°44' W 000°09'0 0.4 5.8
2014-Oct-28 09:01N 68°44' W 000°09'0 0.3 5.8
2014-Oct-28 08:01N 68°45' W 000°10'0 0.2 5.8
2014-Oct-28 07:01N 68°45' W 000°10'0 0.1 5.8
2014-Oct-28 06:01N 68°44' W 000°10'0 0.2 5.8
2014-Oct-28 05:01N 68°44' W 000°10'0 0.3 5.7
2014-Oct-28 04:01N 68°44' W 000°10'0 0.4 5.7
2014-Oct-28 03:01N 68°44' W 000°10'0 0.4 5.7
2014-Oct-28 02:01N 68°43' W 000°09'0 0.4 5.8
2014-Oct-28 01:01N 68°43' W 000°08'0 0.2 5.7
2014-Oct-28 00:01N 68°43' W 000°07'0 0.2 5.7
2014-Oct-27 23:01N 68°43' W 000°07'0 0.2 5.7
2014-Oct-27 22:01N 68°43' W 000°07'0 0.1 5.8
2014-Oct-27 21:01N 68°44' W 000°07'0 0.3 5.8
2014-Oct-27 20:01N 68°44' W 000°07'0 0.4 5.8
2014-Oct-27 19:01N 68°44' W 000°08'0 0.4 5.7
2014-Oct-27 18:01N 68°44' W 000°09'0 0.4 5.8
2014-Oct-27 17:01N 68°43' W 000°11'1 0.5 5.7
2014-Oct-27 16:01N 68°43' W 000°11'1 0.6 5.9
2014-Oct-27 15:01N 68°43' W 000°12'1 0.6 5.8
2014-Oct-27 14:01N 68°42' W 000°12'1 0.5 5.9
2014-Oct-27 13:01N 68°41' W 000°12'1 0.5 5.9
2014-Oct-27 12:01N 68°41' W 000°12'0 0.4 5.8
2014-Oct-27 11:01N 68°41' W 000°12'1 0.3 5.7
2014-Oct-27 09:01N 68°40' W 000°13'0 0.0 5.7
2014-Oct-27 08:01N 68°40' W 000°13'0 0.5 5.7
2014-Oct-27 07:01N 68°40' W 000°15'1 0.6 5.7
2014-Oct-27 06:01N 68°40' W 000°16'1 0.7 5.7
2014-Oct-27 05:01N 68°40' W 000°18'1 0.7 5.8
2014-Oct-27 04:01N 68°39' W 000°19'1 0.7 5.8
2014-Oct-27 03:01N 68°39' W 000°20'1 0.7 5.9
2014-Oct-27 02:01N 68°38' W 000°21'1 0.7 5.9
2014-Oct-27 01:01N 68°37' W 000°21'1 0.7 6.0
2014-Oct-27 00:01N 68°37' W 000°21'1 0.6 5.9
2014-Oct-26 23:01N 68°36' W 000°20'1 0.7 6.0
2014-Oct-26 22:01N 68°36' W 000°19'1 0.7 6.0
2014-Oct-26 21:01N 68°35' W 000°19'1 0.5 6.0
2014-Oct-26 20:01N 68°35' W 000°18'0 0.5 6.1
2014-Oct-26 19:01N 68°34' W 000°17'1 0.5 6.1
2014-Oct-26 18:01N 68°34' W 000°16'0 0.5 6.1
2014-Oct-26 17:01N 68°34' W 000°15'1 0.5 6.1
2014-Oct-26 16:01N 68°33' W 000°14'1 0.6 6.0
2014-Oct-26 15:01N 68°33' W 000°13'1 0.6 6.0
2014-Oct-26 14:01N 68°32' W 000°13'1 0.6 6.1
2014-Oct-26 13:01N 68°31' W 000°12'1 0.7 6.0
2014-Oct-26 12:01N 68°31' W 000°12'1 0.8 5.9
2014-Oct-26 11:01N 68°30' W 000°11'1 1.1 5.8
2014-Oct-26 10:01N 68°29' W 000°11'1 1.2 6.0
2014-Oct-26 09:01N 68°28' W 000°09'1 1.1 6.1
2014-Oct-26 08:01N 68°27' W 000°08'1 1.2 6.0
2014-Oct-26 07:01N 68°26' W 000°06'1 1.1 6.0
2014-Oct-26 06:01N 68°25' W 000°04'1 1.0 5.9
2014-Oct-26 05:01N 68°25' W 000°01'1 0.8 5.9
2014-Oct-26 04:01N 68°24' E 000°01'1 0.6 5.8
2014-Oct-26 03:01N 68°24' E 000°02'1 0.6 5.8
2014-Oct-26 02:01N 68°23' E 000°03'1 0.7 5.7
2014-Oct-26 01:01N 68°23' E 000°04'1 0.7 5.8
2014-Oct-26 00:01N 68°22' E 000°04'1 0.9 5.9
2014-Oct-25 23:01N 68°21' E 000°05'1 1.1 5.9
2014-Oct-25 22:01N 68°20' E 000°06'1 1.1 5.9
2014-Oct-25 21:01N 68°19' E 000°07'1 1.1 5.9
2014-Oct-25 20:01N 68°18' E 000°09'2 1.7 5.9
2014-Oct-25 19:01N 68°17' E 000°12'0 0.0 6.0
2014-Oct-25 18:01N 68°17' E 000°12'1 0.7 6.0
2014-Oct-25 17:01N 68°17' E 000°13'1 0.6 6.1
2014-Oct-25 16:01N 68°16' E 000°14'1 0.6 6.1
2014-Oct-25 15:01N 68°16' E 000°15'1 0.6 5.9
2014-Oct-25 14:01N 68°15' E 000°16'1 0.5 5.7
2014-Oct-25 13:01N 68°14' E 000°16'1 0.6 5.7
2014-Oct-25 12:01N 68°14' E 000°15'1 0.8 5.7
2014-Oct-25 11:01N 68°13' E 000°15'1 0.8 5.8
2014-Oct-25 10:01N 68°12' E 000°14'1 0.9 5.7
2014-Oct-25 09:01N 68°11' E 000°13'1 0.9 5.8
2014-Oct-25 08:01N 68°11' E 000°13'1 0.9 5.8
2014-Oct-25 07:01N 68°10' E 000°13'1 0.7 5.9
2014-Oct-25 06:01N 68°09' E 000°12'1 0.5 5.9
2014-Oct-25 05:01N 68°09' E 000°12'0 0.4 6.0
2014-Oct-25 04:01N 68°08' E 000°12'0 0.4 6.0
2014-Oct-25 03:01N 68°08' E 000°13'0 0.4 5.9
2014-Oct-25 02:01N 68°07' E 000°13'0 0.3 5.8
2014-Oct-25 01:01N 68°07' E 000°13'0 0.3 5.8
2014-Oct-25 00:01N 68°07' E 000°12'1 0.5 5.9
2014-Oct-24 23:01N 68°06' E 000°12'1 0.6 6.0
2014-Oct-24 22:01N 68°06' E 000°11'1 0.6 6.2
2014-Oct-24 21:01N 68°05' E 000°10'1 0.7 6.0
2014-Oct-24 20:01N 68°05' E 000°10'1 0.6 6.0
2014-Oct-24 19:01N 68°04' E 000°09'0 0.4 5.9
2014-Oct-24 18:01N 68°04' E 000°08'0 0.4 5.9
2014-Oct-24 17:01N 68°03' E 000°08'0 0.1 5.8
2014-Oct-24 16:01N 68°03' E 000°07'0 0.1 5.9
2014-Oct-24 15:01N 68°03' E 000°07'0 0.1 5.9
2014-Oct-24 14:01N 68°03' E 000°07'0 0.2 6.0
2014-Oct-24 13:01N 68°03' E 000°06'0 0.3 6.0
2014-Oct-24 12:01N 68°03' E 000°06'0 0.4 6.0
2014-Oct-24 11:01N 68°03' E 000°05'0 0.3 6.0
2014-Oct-24 10:01N 68°03' E 000°04'0 0.5 6.1
2014-Oct-24 09:01N 68°03' E 000°02'1 0.5 6.1
2014-Oct-24 08:01N 68°03' E 000°01'1 0.6 6.1
2014-Oct-24 07:01N 68°02' W 000°00'1 0.5 6.2
2014-Oct-24 06:01N 68°02' W 000°01'0 0.4 6.2
2014-Oct-24 05:01N 68°01' W 000°02'0 0.4 6.2
2014-Oct-24 04:01N 68°01' W 000°02'0 0.3 6.2
2014-Oct-24 03:01N 68°01' W 000°03'0 0.3 6.2
2014-Oct-24 02:01N 68°01' W 000°03'0 0.4 6.3
2014-Oct-24 01:01N 68°01' W 000°04'1 0.5 6.3
2014-Oct-24 00:01N 68°00' W 000°06'1 0.8 6.4
2014-Oct-23 23:01N 68°00' W 000°08'1 0.8 6.4
2014-Oct-23 22:01N 68°00' W 000°10'1 1.0 6.5
2014-Oct-23 21:01N 67°60' W 000°12'1 1.1 6.6
2014-Oct-23 20:01N 67°60' W 000°15'1 1.1 6.7
2014-Oct-23 19:01N 67°59' W 000°18'1 1.1 6.8
2014-Oct-23 18:01N 67°59' W 000°21'1 1.1 6.7
2014-Oct-23 17:01N 67°58' W 000°23'1 1.0 6.8
2014-Oct-23 16:01N 67°57' W 000°25'1 0.8 6.9
2014-Oct-23 15:01N 67°57' W 000°27'1 0.7 7.0
2014-Oct-23 14:01N 67°57' W 000°29'1 0.7 6.9
2014-Oct-23 13:01N 67°56' W 000°30'1 0.7 6.9
2014-Oct-23 12:01N 67°56' W 000°31'1 0.7 6.9
2014-Oct-23 11:01N 67°55' W 000°33'1 0.8 6.8
2014-Oct-23 10:01N 67°55' W 000°34'1 0.9 6.8
2014-Oct-23 09:01N 67°54' W 000°36'2 1.9 6.9
2014-Oct-23 08:01N 67°53' W 000°40'0 0.0 7.0
2014-Oct-23 07:01N 67°53' W 000°40'1 1.0 6.7
2014-Oct-23 06:01N 67°52' W 000°41'1 1.1 6.8
2014-Oct-23 05:01N 67°51' W 000°43'1 1.0 6.8
2014-Oct-23 04:01N 67°50' W 000°44'1 0.8 6.9
2014-Oct-23 03:01N 67°49' W 000°45'1 1.0 6.8
2014-Oct-23 02:01N 67°48' W 000°45'1 1.0 6.9
2014-Oct-23 01:01N 67°48' W 000°46'1 1.0 6.8
2014-Oct-23 00:01N 67°47' W 000°46'1 0.9 6.9
2014-Oct-22 23:01N 67°46' W 000°46'1 0.9 6.9
2014-Oct-22 22:01N 67°45' W 000°47'1 0.9 6.9
2014-Oct-22 21:01N 67°44' W 000°48'1 0.8 6.9
2014-Oct-22 20:01N 67°43' W 000°49'1 0.9 6.8
2014-Oct-22 19:01N 67°43' W 000°50'1 0.9 6.9
2014-Oct-22 18:01N 67°42' W 000°52'1 0.9 6.9
2014-Oct-22 17:01N 67°41' W 000°53'1 0.9 6.8
2014-Oct-22 16:01N 67°40' W 000°55'1 0.8 6.9
2014-Oct-22 15:01N 67°40' W 000°56'1 0.7 6.9
2014-Oct-22 14:01N 67°39' W 000°56'1 0.7 6.9
2014-Oct-22 13:01N 67°39' W 000°57'1 0.5 6.7
2014-Oct-22 12:01N 67°38' W 000°58'1 0.7 6.6
2014-Oct-22 11:01N 67°38' W 000°60'1 0.8 6.5
2014-Oct-22 10:01N 67°37' W 001°01'1 0.9 6.6
2014-Oct-22 09:01N 67°37' W 001°04'1 1.1 6.6
2014-Oct-22 08:01N 67°36' W 001°06'1 1.2 6.7
2014-Oct-22 07:01N 67°36' W 001°09'1 1.3 6.6
2014-Oct-22 06:01N 67°35' W 001°11'2 1.5 6.4
2014-Oct-22 05:01N 67°34' W 001°14'1 1.5 6.2
2014-Oct-22 04:01N 67°33' W 001°17'2 1.6 6.0
2014-Oct-22 03:01N 67°32' W 001°20'1 1.5 6.1
2014-Oct-22 02:01N 67°30' W 001°22'1 1.4 6.1
2014-Oct-22 01:01N 67°29' W 001°23'1 1.2 6.1
2014-Oct-22 00:01N 67°28' W 001°24'1 1.1 6.2
2014-Oct-21 23:01N 67°27' W 001°25'1 0.9 6.1
2014-Oct-21 22:01N 67°26' W 001°26'1 0.8 6.0
2014-Oct-21 21:01N 67°25' W 001°27'1 0.8 6.1
2014-Oct-21 20:01N 67°25' W 001°28'1 0.8 6.0
2014-Oct-21 19:01N 67°24' W 001°30'1 0.8 5.7
2014-Oct-21 18:01N 67°24' W 001°32'1 0.8 5.6
2014-Oct-21 17:01N 67°23' W 001°33'1 0.9 5.7
2014-Oct-21 16:01N 67°23' W 001°35'1 0.9 5.7
2014-Oct-21 15:01N 67°22' W 001°36'1 0.9 5.8
2014-Oct-21 14:01N 67°21' W 001°37'1 0.9 5.8
2014-Oct-21 13:01N 67°20' W 001°37'1 0.8 5.8
2014-Oct-21 12:01N 67°19' W 001°37'1 0.7 5.9
2014-Oct-21 11:01N 67°19' W 001°37'1 0.7 5.9
2014-Oct-21 10:01N 67°18' W 001°37'1 0.7 5.9
2014-Oct-21 09:01N 67°17' W 001°38'0 0.5 5.9
2014-Oct-21 08:01N 67°17' W 001°38'0 0.4 5.9
2014-Oct-21 07:01N 67°16' W 001°38'0 0.4 5.8
2014-Oct-21 06:01N 67°16' W 001°38'1 0.5 5.8
2014-Oct-21 05:01N 67°16' W 001°39'1 0.7 5.8
2014-Oct-21 04:01N 67°15' W 001°41'1 1.0 5.8
2014-Oct-21 03:01N 67°15' W 001°42'1 1.0 5.8
2014-Oct-21 02:01N 67°14' W 001°43'1 1.1 6.0
2014-Oct-21 01:01N 67°12' W 001°44'1 1.1 5.9
2014-Oct-21 00:01N 67°11' W 001°44'1 1.3 5.7
2014-Oct-20 23:01N 67°10' W 001°44'1 1.3 5.7
2014-Oct-20 22:01N 67°09' W 001°44'1 1.2 5.7
2014-Oct-20 21:01N 67°08' W 001°44'1 1.0 5.6
2014-Oct-20 20:01N 67°07' W 001°43'1 0.8 5.5
2014-Oct-20 19:01N 67°06' W 001°43'1 0.5 5.6
2014-Oct-20 18:01N 67°05' W 001°44'1 0.6 5.6
2014-Oct-20 17:01N 67°05' W 001°45'1 0.8 5.6
2014-Oct-20 16:01N 67°04' W 001°46'1 0.7 5.6
2014-Oct-20 15:01N 67°04' W 001°48'   5.5
Track history (hours):
 
Tides and Currents Weather Stations Pressure Air Temp Water Temp Dewpoint Dewpoint Depression Visibility Wind Speed Wind Dir Waves Ship Positions

Drifting buoy 44845

Last reported at 2014-Oct-30 15:01 UTC. Time now 2014-Oct-30 16:07 UTC.
Position N 68°50' W 000°33'.

Water temperature 6.0 ° C

Date/timePositionNaut miles runAvg speedWind from/ knotsBaromVisibWave heightAir tempDewpointWater temp
2014-Oct-30 15:01N 68°50' W 000°33'0 0.3 6.0
2014-Oct-30 14:01N 68°50' W 000°33'0 0.3 6.1
2014-Oct-30 13:01N 68°50' W 000°33'1 0.6 6.0
2014-Oct-30 12:01N 68°49' W 000°33'1 0.7 6.1
2014-Oct-30 11:01N 68°48' W 000°33'1 0.7 6.1
2014-Oct-30 10:01N 68°48' W 000°32'1 0.7 6.1
2014-Oct-30 09:01N 68°47' W 000°31'1 0.7 6.1
2014-Oct-30 08:01N 68°46' W 000°30'1 0.7 6.2
2014-Oct-30 07:01N 68°46' W 000°28'1 0.6 6.2
2014-Oct-30 06:01N 68°46' W 000°27'0 0.5 6.2
2014-Oct-30 05:01N 68°46' W 000°26'0 0.3 6.2
2014-Oct-30 04:01N 68°46' W 000°25'0 0.2 6.2
2014-Oct-30 03:01N 68°45' W 000°24'0 0.1 6.1
2014-Oct-30 02:01N 68°45' W 000°24'0 0.1 6.1
2014-Oct-30 01:01N 68°45' W 000°24'0 0.2 6.1
2014-Oct-30 00:01N 68°45' W 000°24'0 0.2 6.0
2014-Oct-29 23:01N 68°45' W 000°24'0 0.2 6.1
2014-Oct-29 22:01N 68°45' W 000°24'0 0.3 6.1
2014-Oct-29 21:01N 68°44' W 000°24'0 0.3 6.0
2014-Oct-29 20:01N 68°44' W 000°23'0 0.4 6.1
2014-Oct-29 19:01N 68°44' W 000°22'0 0.4 6.0
2014-Oct-29 18:01N 68°44' W 000°21'0 0.4 6.0
2014-Oct-29 17:01N 68°44' W 000°20'0 0.3 6.1
2014-Oct-29 16:01N 68°44' W 000°19'0 0.3 5.9
2014-Oct-29 15:01N 68°44' W 000°19'0 0.3 6.1
2014-Oct-29 14:01N 68°44' W 000°18'0 0.2 6.0
2014-Oct-29 13:01N 68°44' W 000°17'0 0.2 5.9
2014-Oct-29 12:01N 68°44' W 000°17'0 0.1 6.0
2014-Oct-29 11:01N 68°44' W 000°17'0 0.2 5.9
2014-Oct-29 10:01N 68°44' W 000°18'0 0.2 5.9
2014-Oct-29 09:01N 68°44' W 000°18'0 0.2 5.9
2014-Oct-29 08:01N 68°44' W 000°19'0 0.2 5.8
2014-Oct-29 07:01N 68°44' W 000°19'0 0.1 5.8
2014-Oct-29 06:01N 68°44' W 000°19'0 0.1 5.7
2014-Oct-29 05:01N 68°44' W 000°19'0 0.2 5.8
2014-Oct-29 04:01N 68°44' W 000°18'0 0.2 5.8
2014-Oct-29 03:01N 68°44' W 000°18'0 0.2 5.9
2014-Oct-29 02:01N 68°44' W 000°17'0 0.2 5.8
2014-Oct-29 01:01N 68°44' W 000°16'0 0.4 5.8
2014-Oct-29 00:01N 68°44' W 000°16'0 0.3 5.7
2014-Oct-28 23:01N 68°44' W 000°15'0 0.2 5.6
2014-Oct-28 22:01N 68°44' W 000°15'0 0.2 5.6
2014-Oct-28 21:01N 68°44' W 000°16'0 0.2 5.7
2014-Oct-28 20:01N 68°44' W 000°16'0 0.2 5.6
2014-Oct-28 19:01N 68°44' W 000°17'0 0.2 5.7
2014-Oct-28 18:01N 68°44' W 000°17'0 0.2 5.7
2014-Oct-28 17:01N 68°44' W 000°17'0 0.5 5.8
2014-Oct-28 16:01N 68°44' W 000°16'0 0.5 6.0
2014-Oct-28 15:01N 68°43' W 000°14'0 0.5 6.1
2014-Oct-28 14:01N 68°43' W 000°13'0 0.4 6.0
2014-Oct-28 13:01N 68°43' W 000°12'0 0.4 6.0
2014-Oct-28 12:01N 68°43' W 000°11'0 0.4 5.9
2014-Oct-28 11:01N 68°44' W 000°10'0 0.4 5.8
2014-Oct-28 10:01N 68°44' W 000°09'0 0.4 5.8
2014-Oct-28 09:01N 68°44' W 000°09'0 0.3 5.8
2014-Oct-28 08:01N 68°45' W 000°10'0 0.2 5.8
2014-Oct-28 07:01N 68°45' W 000°10'0 0.1 5.8
2014-Oct-28 06:01N 68°44' W 000°10'0 0.2 5.8
2014-Oct-28 05:01N 68°44' W 000°10'0 0.3 5.7
2014-Oct-28 04:01N 68°44' W 000°10'0 0.4 5.7
2014-Oct-28 03:01N 68°44' W 000°10'0 0.4 5.7
2014-Oct-28 02:01N 68°43' W 000°09'0 0.4 5.8
2014-Oct-28 01:01N 68°43' W 000°08'0 0.2 5.7
2014-Oct-28 00:01N 68°43' W 000°07'0 0.2 5.7
2014-Oct-27 23:01N 68°43' W 000°07'0 0.2 5.7
2014-Oct-27 22:01N 68°43' W 000°07'0 0.1 5.8
2014-Oct-27 21:01N 68°44' W 000°07'0 0.3 5.8
2014-Oct-27 20:01N 68°44' W 000°07'0 0.4 5.8
2014-Oct-27 19:01N 68°44' W 000°08'0 0.4 5.7
2014-Oct-27 18:01N 68°44' W 000°09'0 0.4 5.8
2014-Oct-27 17:01N 68°43' W 000°11'1 0.5 5.7
2014-Oct-27 16:01N 68°43' W 000°11'1 0.6 5.9
2014-Oct-27 15:01N 68°43' W 000°12'1 0.6 5.8
2014-Oct-27 14:01N 68°42' W 000°12'1 0.5 5.9
2014-Oct-27 13:01N 68°41' W 000°12'1 0.5 5.9
2014-Oct-27 12:01N 68°41' W 000°12'0 0.4 5.8
2014-Oct-27 11:01N 68°41' W 000°12'1 0.3 5.7
2014-Oct-27 09:01N 68°40' W 000°13'0 0.0 5.7
2014-Oct-27 08:01N 68°40' W 000°13'0 0.5 5.7
2014-Oct-27 07:01N 68°40' W 000°15'1 0.6 5.7
2014-Oct-27 06:01N 68°40' W 000°16'1 0.7 5.7
2014-Oct-27 05:01N 68°40' W 000°18'1 0.7 5.8
2014-Oct-27 04:01N 68°39' W 000°19'1 0.7 5.8
2014-Oct-27 03:01N 68°39' W 000°20'1 0.7 5.9
2014-Oct-27 02:01N 68°38' W 000°21'1 0.7 5.9
2014-Oct-27 01:01N 68°37' W 000°21'1 0.7 6.0
2014-Oct-27 00:01N 68°37' W 000°21'1 0.6 5.9
2014-Oct-26 23:01N 68°36' W 000°20'1 0.7 6.0
2014-Oct-26 22:01N 68°36' W 000°19'1 0.7 6.0
2014-Oct-26 21:01N 68°35' W 000°19'1 0.5 6.0
2014-Oct-26 20:01N 68°35' W 000°18'0 0.5 6.1
2014-Oct-26 19:01N 68°34' W 000°17'1 0.5 6.1
2014-Oct-26 18:01N 68°34' W 000°16'0 0.5 6.1
2014-Oct-26 17:01N 68°34' W 000°15'1 0.5 6.1
2014-Oct-26 16:01N 68°33' W 000°14'1 0.6 6.0
2014-Oct-26 15:01N 68°33' W 000°13'1 0.6 6.0
2014-Oct-26 14:01N 68°32' W 000°13'1 0.6 6.1
2014-Oct-26 13:01N 68°31' W 000°12'1 0.7 6.0
2014-Oct-26 12:01N 68°31' W 000°12'1 0.8 5.9
2014-Oct-26 11:01N 68°30' W 000°11'1 1.1 5.8
2014-Oct-26 10:01N 68°29' W 000°11'1 1.2 6.0
2014-Oct-26 09:01N 68°28' W 000°09'1 1.1 6.1
2014-Oct-26 08:01N 68°27' W 000°08'1 1.2 6.0
2014-Oct-26 07:01N 68°26' W 000°06'1 1.1 6.0
2014-Oct-26 06:01N 68°25' W 000°04'1 1.0 5.9
2014-Oct-26 05:01N 68°25' W 000°01'1 0.8 5.9
2014-Oct-26 04:01N 68°24' E 000°01'1 0.6 5.8
2014-Oct-26 03:01N 68°24' E 000°02'1 0.6 5.8
2014-Oct-26 02:01N 68°23' E 000°03'1 0.7 5.7
2014-Oct-26 01:01N 68°23' E 000°04'1 0.7 5.8
2014-Oct-26 00:01N 68°22' E 000°04'1 0.9 5.9
2014-Oct-25 23:01N 68°21' E 000°05'1 1.1 5.9
2014-Oct-25 22:01N 68°20' E 000°06'1 1.1 5.9
2014-Oct-25 21:01N 68°19' E 000°07'1 1.1 5.9
2014-Oct-25 20:01N 68°18' E 000°09'2 1.7 5.9
2014-Oct-25 19:01N 68°17' E 000°12'0 0.0 6.0
2014-Oct-25 18:01N 68°17' E 000°12'1 0.7 6.0
2014-Oct-25 17:01N 68°17' E 000°13'1 0.6 6.1
2014-Oct-25 16:01N 68°16' E 000°14'1 0.6 6.1
2014-Oct-25 15:01N 68°16' E 000°15'1 0.6 5.9
2014-Oct-25 14:01N 68°15' E 000°16'1 0.5 5.7
2014-Oct-25 13:01N 68°14' E 000°16'1 0.6 5.7
2014-Oct-25 12:01N 68°14' E 000°15'1 0.8 5.7
2014-Oct-25 11:01N 68°13' E 000°15'1 0.8 5.8
2014-Oct-25 10:01N 68°12' E 000°14'1 0.9 5.7
2014-Oct-25 09:01N 68°11' E 000°13'1 0.9 5.8
2014-Oct-25 08:01N 68°11' E 000°13'1 0.9 5.8
2014-Oct-25 07:01N 68°10' E 000°13'1 0.7 5.9
2014-Oct-25 06:01N 68°09' E 000°12'1 0.5 5.9
2014-Oct-25 05:01N 68°09' E 000°12'0 0.4 6.0
2014-Oct-25 04:01N 68°08' E 000°12'0 0.4 6.0
2014-Oct-25 03:01N 68°08' E 000°13'0 0.4 5.9
2014-Oct-25 02:01N 68°07' E 000°13'0 0.3 5.8
2014-Oct-25 01:01N 68°07' E 000°13'0 0.3 5.8
2014-Oct-25 00:01N 68°07' E 000°12'1 0.5 5.9
2014-Oct-24 23:01N 68°06' E 000°12'1 0.6 6.0
2014-Oct-24 22:01N 68°06' E 000°11'1 0.6 6.2
2014-Oct-24 21:01N 68°05' E 000°10'1 0.7 6.0
2014-Oct-24 20:01N 68°05' E 000°10'1 0.6 6.0
2014-Oct-24 19:01N 68°04' E 000°09'0 0.4 5.9
2014-Oct-24 18:01N 68°04' E 000°08'0 0.4 5.9
2014-Oct-24 17:01N 68°03' E 000°08'0 0.1 5.8
2014-Oct-24 16:01N 68°03' E 000°07'0 0.1 5.9
2014-Oct-24 15:01N 68°03' E 000°07'0 0.1 5.9
2014-Oct-24 14:01N 68°03' E 000°07'0 0.2 6.0
2014-Oct-24 13:01N 68°03' E 000°06'0 0.3 6.0
2014-Oct-24 12:01N 68°03' E 000°06'0 0.4 6.0
2014-Oct-24 11:01N 68°03' E 000°05'0 0.3 6.0
2014-Oct-24 10:01N 68°03' E 000°04'0 0.5 6.1
2014-Oct-24 09:01N 68°03' E 000°02'1 0.5 6.1
2014-Oct-24 08:01N 68°03' E 000°01'1 0.6 6.1
2014-Oct-24 07:01N 68°02' W 000°00'1 0.5 6.2
2014-Oct-24 06:01N 68°02' W 000°01'0 0.4 6.2
2014-Oct-24 05:01N 68°01' W 000°02'0 0.4 6.2
2014-Oct-24 04:01N 68°01' W 000°02'0 0.3 6.2
2014-Oct-24 03:01N 68°01' W 000°03'0 0.3 6.2
2014-Oct-24 02:01N 68°01' W 000°03'0 0.4 6.3
2014-Oct-24 01:01N 68°01' W 000°04'1 0.5 6.3
2014-Oct-24 00:01N 68°00' W 000°06'1 0.8 6.4
2014-Oct-23 23:01N 68°00' W 000°08'1 0.8 6.4
2014-Oct-23 22:01N 68°00' W 000°10'1 1.0 6.5
2014-Oct-23 21:01N 67°60' W 000°12'1 1.1 6.6
2014-Oct-23 20:01N 67°60' W 000°15'1 1.1 6.7
2014-Oct-23 19:01N 67°59' W 000°18'1 1.1 6.8
2014-Oct-23 18:01N 67°59' W 000°21'1 1.1 6.7
2014-Oct-23 17:01N 67°58' W 000°23'1 1.0 6.8
2014-Oct-23 16:01N 67°57' W 000°25'1 0.8 6.9
2014-Oct-23 15:01N 67°57' W 000°27'1 0.7 7.0
2014-Oct-23 14:01N 67°57' W 000°29'1 0.7 6.9
2014-Oct-23 13:01N 67°56' W 000°30'1 0.7 6.9
2014-Oct-23 12:01N 67°56' W 000°31'1 0.7 6.9
2014-Oct-23 11:01N 67°55' W 000°33'1 0.8 6.8
2014-Oct-23 10:01N 67°55' W 000°34'1 0.9 6.8
2014-Oct-23 09:01N 67°54' W 000°36'2 1.9 6.9
2014-Oct-23 08:01N 67°53' W 000°40'0 0.0 7.0
2014-Oct-23 07:01N 67°53' W 000°40'1 1.0 6.7
2014-Oct-23 06:01N 67°52' W 000°41'1 1.1 6.8
2014-Oct-23 05:01N 67°51' W 000°43'1 1.0 6.8
2014-Oct-23 04:01N 67°50' W 000°44'1 0.8 6.9
2014-Oct-23 03:01N 67°49' W 000°45'1 1.0 6.8
2014-Oct-23 02:01N 67°48' W 000°45'1 1.0 6.9
2014-Oct-23 01:01N 67°48' W 000°46'1 1.0 6.8
2014-Oct-23 00:01N 67°47' W 000°46'1 0.9 6.9
2014-Oct-22 23:01N 67°46' W 000°46'1 0.9 6.9
2014-Oct-22 22:01N 67°45' W 000°47'1 0.9 6.9
2014-Oct-22 21:01N 67°44' W 000°48'1 0.8 6.9
2014-Oct-22 20:01N 67°43' W 000°49'1 0.9 6.8
2014-Oct-22 19:01N 67°43' W 000°50'1 0.9 6.9
2014-Oct-22 18:01N 67°42' W 000°52'1 0.9 6.9
2014-Oct-22 17:01N 67°41' W 000°53'1 0.9 6.8
2014-Oct-22 16:01N 67°40' W 000°55'1 0.8 6.9
2014-Oct-22 15:01N 67°40' W 000°56'1 0.7 6.9
2014-Oct-22 14:01N 67°39' W 000°56'1 0.7 6.9
2014-Oct-22 13:01N 67°39' W 000°57'1 0.5 6.7
2014-Oct-22 12:01N 67°38' W 000°58'1 0.7 6.6
2014-Oct-22 11:01N 67°38' W 000°60'1 0.8 6.5
2014-Oct-22 10:01N 67°37' W 001°01'1 0.9 6.6
2014-Oct-22 09:01N 67°37' W 001°04'1 1.1 6.6
2014-Oct-22 08:01N 67°36' W 001°06'1 1.2 6.7
2014-Oct-22 07:01N 67°36' W 001°09'1 1.3 6.6
2014-Oct-22 06:01N 67°35' W 001°11'2 1.5 6.4
2014-Oct-22 05:01N 67°34' W 001°14'1 1.5 6.2
2014-Oct-22 04:01N 67°33' W 001°17'2 1.6 6.0
2014-Oct-22 03:01N 67°32' W 001°20'1 1.5 6.1
2014-Oct-22 02:01N 67°30' W 001°22'1 1.4 6.1
2014-Oct-22 01:01N 67°29' W 001°23'1 1.2 6.1
2014-Oct-22 00:01N 67°28' W 001°24'1 1.1 6.2
2014-Oct-21 23:01N 67°27' W 001°25'1 0.9 6.1
2014-Oct-21 22:01N 67°26' W 001°26'1 0.8 6.0
2014-Oct-21 21:01N 67°25' W 001°27'1 0.8 6.1
2014-Oct-21 20:01N 67°25' W 001°28'1 0.8 6.0
2014-Oct-21 19:01N 67°24' W 001°30'1 0.8 5.7
2014-Oct-21 18:01N 67°24' W 001°32'1 0.8 5.6
2014-Oct-21 17:01N 67°23' W 001°33'1 0.9 5.7
2014-Oct-21 16:01N 67°23' W 001°35'1 0.9 5.7
2014-Oct-21 15:01N 67°22' W 001°36'1 0.9 5.8
2014-Oct-21 14:01N 67°21' W 001°37'1 0.9 5.8
2014-Oct-21 13:01N 67°20' W 001°37'1 0.8 5.8
2014-Oct-21 12:01N 67°19' W 001°37'1 0.7 5.9
2014-Oct-21 11:01N 67°19' W 001°37'1 0.7 5.9
2014-Oct-21 10:01N 67°18' W 001°37'1 0.7 5.9
2014-Oct-21 09:01N 67°17' W 001°38'0 0.5 5.9
2014-Oct-21 08:01N 67°17' W 001°38'0 0.4 5.9
2014-Oct-21 07:01N 67°16' W 001°38'0 0.4 5.8
2014-Oct-21 06:01N 67°16' W 001°38'1 0.5 5.8
2014-Oct-21 05:01N 67°16' W 001°39'1 0.7 5.8
2014-Oct-21 04:01N 67°15' W 001°41'1 1.0 5.8
2014-Oct-21 03:01N 67°15' W 001°42'1 1.0 5.8
2014-Oct-21 02:01N 67°14' W 001°43'1 1.1 6.0
2014-Oct-21 01:01N 67°12' W 001°44'1 1.1 5.9
2014-Oct-21 00:01N 67°11' W 001°44'1 1.3 5.7
2014-Oct-20 23:01N 67°10' W 001°44'1 1.3 5.7
2014-Oct-20 22:01N 67°09' W 001°44'1 1.2 5.7
2014-Oct-20 21:01N 67°08' W 001°44'1 1.0 5.6
2014-Oct-20 20:01N 67°07' W 001°43'1 0.8 5.5
2014-Oct-20 19:01N 67°06' W 001°43'1 0.5 5.6
2014-Oct-20 18:01N 67°05' W 001°44'1 0.6 5.6
2014-Oct-20 17:01N 67°05' W 001°45'1 0.8 5.6
2014-Oct-20 16:01N 67°04' W 001°46'1 0.7 5.6
2014-Oct-20 15:01N 67°04' W 001°48'   5.5

Dump ship's entire track history